Captiva — WDF3796 — position and weather

sailwx.info

Track history (hours):
 
Tides and Currents Weather Stations Pressure Air Temp Water Temp Dewpoint Dewpoint Depression Visibility Wind Speed Wind Dir Waves Ship Positions

Captiva

Owner: Callahan, Michael F, Swampscott, MA. More information available from US FCC via Universal Licensing System and Coast Guard Vessel Documentation Center.

Last reported at 2015-Aug-10 19:10 UTC. Time now 2015-Aug-30 16:02 UTC.
Position N 41°28' W 070°34'.
Warning: this ship's position is 19 days out of date.

Length 15 m.

Type: Sailing vessel. MMSI: 367444090.

Date/timePositionNaut miles runAvg speedWind from/ knotsBaromVisibWave heightAir tempDewpointWater temp
2015-Aug-10 19:10N 41°28' W 070°34'5 7.8
2015-Aug-10 18:34N 41°28' W 070°40'18 7.3
2015-Aug-10 16:06N 41°20' W 071°01'4 7.8
2015-Aug-10 15:33N 41°19' W 071°07'8 7.7
2015-Aug-10 14:33N 41°18' W 071°17'8 8.0
2015-Aug-10 13:34N 41°17' W 071°27'7 6.8
2015-Aug-10 12:34N 41°13' W 071°35'2 2.3
2015-Aug-10 11:31N 41°11' W 071°35'28 0.6
2015-Aug-08 14:27N 41°38' W 071°23'4 4.0
2015-Aug-08 13:24N 41°42' W 071°23'  
2015-Aug-02 19:27N 41°42' W 071°23'1 0.7
2015-Aug-02 18:08N 41°41' W 071°24'12 0.3
2015-Aug-01 06:28N 41°29' W 071°19'0 0.0
2015-Aug-01 05:31N 41°29' W 071°19'0 0.0
2015-Aug-01 04:31N 41°29' W 071°19'0 0.0
2015-Aug-01 03:28N 41°29' W 071°19'0 0.0
2015-Aug-01 02:34N 41°29' W 071°19'0 0.0
2015-Aug-01 01:28N 41°29' W 071°19'  
Track history (hours):
 
Tides and Currents Weather Stations Pressure Air Temp Water Temp Dewpoint Dewpoint Depression Visibility Wind Speed Wind Dir Waves Ship Positions

Captiva

Owner: Callahan, Michael F, Swampscott, MA. More information available from US FCC via Universal Licensing System and Coast Guard Vessel Documentation Center.

Last reported at 2015-Aug-10 19:10 UTC. Time now 2015-Aug-30 16:02 UTC.
Position N 41°28' W 070°34'.
Warning: this ship's position is 19 days out of date.

Length 15 m.

Type: Sailing vessel. MMSI: 367444090.

Date/timePositionNaut miles runAvg speedWind from/ knotsBaromVisibWave heightAir tempDewpointWater temp
2015-Aug-10 19:10N 41°28' W 070°34'5 7.8
2015-Aug-10 18:34N 41°28' W 070°40'18 7.3
2015-Aug-10 16:06N 41°20' W 071°01'4 7.8
2015-Aug-10 15:33N 41°19' W 071°07'8 7.7
2015-Aug-10 14:33N 41°18' W 071°17'8 8.0
2015-Aug-10 13:34N 41°17' W 071°27'7 6.8
2015-Aug-10 12:34N 41°13' W 071°35'2 2.3
2015-Aug-10 11:31N 41°11' W 071°35'28 0.6
2015-Aug-08 14:27N 41°38' W 071°23'4 4.0
2015-Aug-08 13:24N 41°42' W 071°23'  
2015-Aug-02 19:27N 41°42' W 071°23'1 0.7
2015-Aug-02 18:08N 41°41' W 071°24'12 0.3
2015-Aug-01 06:28N 41°29' W 071°19'0 0.0
2015-Aug-01 05:31N 41°29' W 071°19'0 0.0
2015-Aug-01 04:31N 41°29' W 071°19'0 0.0
2015-Aug-01 03:28N 41°29' W 071°19'0 0.0
2015-Aug-01 02:34N 41°29' W 071°19'0 0.0
2015-Aug-01 01:28N 41°29' W 071°19'  

Dump ship's entire track history